首页
METAR-TAF:

METAR-TAF

机场 :

马尼拉, 菲律宾

尼诺伊·阿基诺国际机场

纬度: 14-31N, 经度: 121-00E, 海拔: 14米

当前天气观测

该预报发布于11分钟前的00:00 UTC
风速2节,风向多变
温度 29°C
湿度 58%
气压 1013 hPa
能见度10公里或以上
少量云层高于2300英尺
多云层高于30000英尺

METAR: RPLL 250000Z VRB02KT 9999 FEW023 BKN300 29/20 Q1013 NOSIG RMK A2991

时间: 08:11 (00:11 UTC)

预报

该预报发布于1小时和11分钟前的23:00 UTC
预报有效从25日的 00点(UTC)到 26日的 06点(UTC)
风速8节,风向东转东北
能见度10公里或以上
少量云层高于2500英尺
散云层高于30000英尺
短暂存在
从 25日的 00点(UTC)到 25日的 06点(UTC)
风速12节,风向东转东北
少量云层高于2500英尺
散云层高于10000英尺
多云层高于30000英尺
短暂存在
从 25日的 06点(UTC)到 25日的 12点(UTC)
风速10节,风向东转东北
少量云层高于2500英尺
多云层高于30000英尺

TAF: RPLL 242300Z 2500/2606 07008KT 9999 FEW025 SCT300 TX31/2506Z TN25/2522Z TEMPO 2500/2506 06012KT FEW025 SCT100 BKN300 TEMPO 2506/2512 07010KT FEW025 BKN300

超过4000个机场的气象观测和天气预报(METAR&TAF报告)。

可查询的气象台以黄色和红色小点在地图上表示。

将鼠标移到小点上方,可查看气象台名称。

然后点击查看天气观测和预报。

如需切换地图:点击带黑十字的绿色按钮放大地图;点击带横线的绿色按钮缩小地图;或者点击绿色箭头查看邻近地区的地图。


METAR-TAF: